Latest Weather Observations for Lake Julius

IDQ60801

Issued at 9:32 pm EST Saturday 6 February 2016 (issued every 30 minutes, with the page automatically refreshed every 10 minutes)

About weather observations | Map of weather stations | Latest weather observations for QLD | Other Formats
Station Details ID: 029181 Name: LAKE JULIUS AWS Lat: -20.12 Lon: 139.73 Height: 237.0 m
Data from the previous 72 hours. | See also: Recent months at Lake Julius
Date/Time
EST
Temp
°C
App
Temp
°C
Dew
Point
Rel
Hum
%
Delta-T
°C
Wind Press
QNH
hPa
Press
MSL
hPa
Rain
since 9 am
mm
Dir
 
Spd
km/h
Gust
km/h
Spd
kts
Gust
kts
06/09:30pm 28.7 31.1 16.9 48 7.5 CALM 0 0 0 0 - - 0.0
06/09:00pm 29.2 31.6 17.1 48 7.7 CALM 0 0 0 0 - - 0.0
06/08:30pm 30.1 32.5 16.9 45 8.4 CALM 0 0 0 0 - - 0.0
06/08:00pm 31.0 32.5 14.6 37 10.1 CALM 0 0 0 0 - - 0.0
06/07:30pm 32.6 33.0 13.8 32 11.5 N 4 4 2 2 - - 0.0
06/07:00pm 34.0 34.5 12.9 28 12.8 SSW 2 4 1 2 - - 0.0
06/06:30pm 35.2 34.8 9.6 21 14.9 S 2 4 1 2 - - 0.0
06/06:00pm 35.9 35.6 11.5 23 14.6 SW 4 6 2 3 - - 0.0
06/05:30pm 35.7 34.6 10.0 21 15.0 SSW 6 11 3 6 - - 0.0
06/05:00pm 36.1 34.9 9.6 20 15.5 WSW 6 7 3 4 - - 0.0
06/04:30pm 35.9 35.4 10.9 22 14.8 SSE 4 6 2 3 - - 0.0
06/04:00pm 35.7 34.0 10.0 21 15.0 SW 9 17 5 9 - - 0.0
06/03:30pm 35.6 34.3 11.3 23 14.5 S 9 13 5 7 - - 0.0
06/03:00pm 35.2 33.2 10.3 22 14.6 SSE 11 19 6 10 - - 0.0
06/02:30pm 35.0 33.9 10.1 22 14.6 S 6 9 3 5 - - 0.0
06/02:00pm 35.1 34.1 8.8 20 15.1 E 4 9 2 5 - - 0.0
06/01:30pm 34.9 33.6 10.0 22 14.5 SSW 7 13 4 7 - - 0.0
06/01:00pm 35.2 34.4 10.9 23 14.4 SE 6 11 3 6 - - 0.0
06/12:30pm 34.4 33.3 12.1 26 13.4 SSE 9 15 5 8 - - 0.0
06/12:00pm 33.9 32.3 11.7 26 13.2 S 11 15 6 8 - - 0.0
06/11:30am 33.6 31.4 10.9 25 13.4 SSE 13 19 7 10 - - 0.0
06/11:00am 33.1 31.3 11.0 26 13.0 S 11 19 6 10 - - 0.0
06/10:30am 32.1 29.7 10.2 26 12.7 S 13 26 7 14 - - 0.0
06/10:00am 31.3 29.8 10.6 28 12.0 SSW 9 17 5 9 - - 0.0
06/09:30am 30.0 28.0 10.0 29 11.4 S 11 17 6 9 - - 0.0
06/09:00am 29.0 27.4 10.2 31 10.7 SSW 9 17 5 9 - - 0.0
06/08:30am 27.4 26.8 11.8 38 9.1 SSW 6 11 3 6 - - 0.0
06/08:00am 26.1 25.4 11.5 40 8.4 S 6 7 3 4 - - 0.0
06/07:30am 25.0 24.8 11.9 44 7.5 SSW 4 7 2 4 - - 0.0
06/07:00am 24.1 23.9 11.8 46 7.0 SSW 4 6 2 3 - - 0.0
06/06:30am 23.6 23.0 11.6 47 6.8 S 6 7 3 4 - - 0.0
06/06:00am 24.1 23.4 11.4 45 7.2 SSW 6 9 3 5 - - 0.0
06/05:30am 24.9 23.8 10.8 41 8.0 SSW 7 11 4 6 - - 0.0
06/05:00am 24.5 23.5 11.1 43 7.6 SSW 7 11 4 6 - - 0.0
06/04:30am 24.5 23.9 11.8 45 7.3 SSW 6 7 3 4 - - 0.0
06/04:00am 24.9 24.1 11.8 44 7.5 SSW 7 13 4 7 - - 0.0
06/03:30am 25.0 24.2 11.6 43 7.7 SSW 7 9 4 5 - - 0.0
06/03:00am 25.6 24.6 11.0 40 8.3 SSW 7 11 4 6 - - 0.0
06/02:30am 25.9 24.6 10.1 37 8.9 SSW 7 11 4 6 - - 0.0
06/02:00am 26.6 24.5 9.9 35 9.4 SSW 11 15 6 8 - - 0.0
06/01:30am 26.8 25.3 9.2 33 9.8 SW 7 13 4 7 - - 0.0
06/01:00am 27.3 25.2 9.6 33 9.9 SSW 11 17 6 9 - - 0.0
06/12:30am 27.7 25.5 9.5 32 10.2 SSW 11 17 6 9 - - 0.0
06/12:00am 28.0 26.2 9.3 31 10.5 SSW 9 13 5 7 - - 0.0
 
Date/Time
EST
Temp
°C
App
Temp
°C
Dew
Point
Rel
Hum
%
Delta-T
°C
Wind Press
QNH
hPa
Press
MSL
hPa
Rain
since 9 am
mm
Dir
 
Spd
km/h
Gust
km/h
Spd
kts
Gust
kts
05/11:30pm 28.3 25.8 9.6 31 10.5 SSW 13 19 7 10 - - 0.0
05/11:00pm 28.8 26.5 10.5 32 10.5 SSW 13 20 7 11 - - 0.0
05/10:30pm 28.9 27.1 11.0 33 10.3 SSW 11 19 6 10 - - 0.0
05/10:00pm 29.3 27.5 10.9 32 10.6 SSW 11 17 6 9 - - 0.0
05/09:30pm 29.7 27.9 10.8 31 10.9 SSW 11 15 6 8 - - 0.0
05/09:00pm 30.2 28.5 11.2 31 11.1 SSW 11 15 6 8 - - 0.0
05/08:30pm 29.1 28.8 13.3 37 9.5 SSW 7 13 4 7 - - 0.0
05/08:00pm 29.8 30.1 14.4 39 9.4 SSW 6 7 3 4 - - 0.0
05/07:30pm 31.1 30.7 12.9 32 10.9 SSW 7 11 4 6 - - 0.0
05/07:00pm 32.1 29.9 10.8 27 12.4 S 13 19 7 10 - - 0.0
05/06:30pm 32.9 30.0 10.9 26 12.9 S 17 24 9 13 - - 0.0
05/06:00pm 33.3 31.4 12.9 29 12.4 S 15 22 8 12 - - 0.0
05/05:30pm 33.6 31.6 12.6 28 12.7 S 15 24 8 13 - - 0.0
05/05:00pm 33.6 31.7 13.1 29 12.5 SSE 15 24 8 13 - - 0.0
05/04:30pm 34.0 32.8 12.9 28 12.8 S 11 22 6 12 - - 0.0
05/04:00pm 33.7 32.1 12.7 28 12.7 SSE 13 22 7 12 - - 0.0
05/03:30pm 33.7 32.6 14.2 30 12.1 S 13 22 7 12 - - 0.0
05/03:00pm 33.8 33.1 14.3 31 12.1 SSW 11 28 6 15 - - 0.0
05/02:30pm 33.6 32.6 14.6 31 11.8 SSE 13 24 7 13 - - 0.0
05/02:00pm 33.3 32.8 14.8 32 11.5 SSE 11 22 6 12 - - 0.0
05/01:30pm 32.7 31.6 14.3 32 11.4 SSW 13 24 7 13 - - 0.0
05/01:00pm 31.8 30.6 14.0 34 10.9 S 13 20 7 11 - - 0.0
05/12:30pm 31.7 30.8 14.8 36 10.5 S 13 22 7 12 - - 0.0
05/12:00pm 31.1 30.3 15.1 38 9.9 SSW 13 20 7 11 - - 0.0
05/11:30am 30.4 29.7 15.3 40 9.4 S 13 19 7 10 - - 0.0
05/11:00am 29.8 28.8 14.7 39 9.3 S 13 19 7 10 - - 0.0
05/10:30am 29.9 29.0 14.8 39 9.3 SSE 13 22 7 12 - - 0.0
05/10:00am 28.9 27.7 13.9 39 9.1 S 13 19 7 10 - - 0.0
05/09:30am 28.6 27.3 13.7 40 9.0 S 13 22 7 12 - - 0.0
05/09:00am 27.3 24.6 12.9 41 8.5 SSW 19 24 10 13 - - 0.0
05/08:30am 26.8 25.0 13.2 43 8.1 SSW 15 22 8 12 - - 0.0
05/08:00am 26.1 24.6 13.2 44 7.6 SSW 13 20 7 11 - - 0.0
05/07:30am 25.4 25.2 14.8 52 6.4 SSW 9 15 5 8 - - 0.0
05/07:00am 24.5 24.8 14.9 55 5.8 SSW 7 9 4 5 - - 0.0
05/06:30am 24.4 24.1 12.7 48 6.8 SSW 6 7 3 4 - - 0.0
05/06:00am 25.1 24.3 13.0 47 7.1 SSW 9 11 5 6 - - 0.0
05/05:30am 25.8 24.8 13.3 46 7.4 S 11 17 6 9 - - 0.0
05/05:00am 25.8 25.2 13.6 47 7.2 S 9 15 5 8 - - 0.0
05/04:30am 25.6 26.7 15.6 54 6.1 S 4 7 2 4 - - 0.0
05/04:00am 25.7 25.9 14.8 51 6.6 SSW 7 11 4 6 - - 0.0
05/03:30am 26.2 26.2 14.3 48 7.2 SSW 7 11 4 6 - - 0.0
05/03:00am 26.4 26.6 14.8 49 7.0 SSW 7 9 4 5 - - 0.0
05/02:30am 26.5 26.8 14.9 49 7.1 SSW 7 11 4 6 - - 0.0
05/02:00am 26.6 27.0 15.3 50 6.9 SSW 7 11 4 6 - - 0.0
05/01:30am 27.4 27.5 15.4 48 7.4 SSW 9 13 5 7 - - 0.0
05/01:00am 27.4 27.5 15.4 48 7.4 SW 9 15 5 8 - - 0.0
05/12:30am 27.9 27.5 15.2 46 7.8 SSW 11 17 6 9 - - 0.0
05/12:00am 28.1 27.8 15.4 46 7.8 SSW 11 15 6 8 - - 0.0
 
Date/Time
EST
Temp
°C
App
Temp
°C
Dew
Point
Rel
Hum
%
Delta-T
°C
Wind Press
QNH
hPa
Press
MSL
hPa
Rain
since 9 am
mm
Dir
 
Spd
km/h
Gust
km/h
Spd
kts
Gust
kts
04/11:30pm 28.4 28.0 15.3 45 8.1 SSW 11 15 6 8 - - 0.0
04/11:00pm 28.9 27.7 15.1 43 8.5 SSW 15 22 8 12 - - 0.0
04/10:30pm 29.0 28.2 15.2 43 8.5 SSW 13 17 7 9 - - 0.0
04/10:00pm 29.2 29.0 15.7 44 8.4 SSW 11 17 6 9 - - 0.0
04/09:30pm 29.4 29.3 15.9 44 8.4 SSW 11 17 6 9 - - 0.0
04/09:00pm 29.7 29.6 16.1 43 8.5 SSW 11 19 6 10 - - 0.0
04/08:30pm 30.0 30.2 16.8 45 8.4 SSW 11 17 6 9 - - 0.0
04/08:00pm 30.3 30.1 16.7 44 8.6 S 13 20 7 11 - - 0.0
04/07:30pm 30.9 29.9 16.5 42 9.1 SSW 17 26 9 14 - - 0.0
04/07:00pm 31.3 29.9 16.5 41 9.4 SSW 19 26 10 14 - - 0.0
04/06:30pm 31.7 32.0 17.9 43 8.9 S 13 24 7 13 - - 0.0
04/06:00pm 31.8 31.4 18.0 43 9.0 SSW 17 28 9 15 - - 0.0
04/05:30pm 31.5 32.1 18.5 46 8.5 S 13 20 7 11 - - 0.0
04/05:00pm 32.2 32.7 18.4 44 9.0 S 13 22 7 12 - - 0.0
04/04:30pm 31.8 32.4 18.7 45 8.6 SSE 13 19 7 10 - - 0.0
04/04:00pm 31.4 32.4 18.7 46 8.3 S 11 20 6 11 - - 0.0
04/03:30pm 31.7 32.0 18.7 46 8.5 S 15 28 8 15 - - 0.0
04/03:00pm 31.5 32.4 19.2 48 8.1 SSE 13 22 7 12 - - 0.0
04/02:30pm 31.1 31.6 20.1 52 7.3 SSE 17 24 9 13 - - 0.0
04/02:00pm 30.1 31.3 19.8 54 6.8 SSE 13 22 7 12 - - 0.0
04/01:30pm 29.7 29.4 19.1 53 6.9 S 19 24 10 13 - - 0.0
04/01:00pm 29.4 28.7 18.2 51 7.2 SSE 19 24 10 13 - - 0.0
04/12:30pm 28.9 27.7 17.4 49 7.3 SSE 20 35 11 19 - - 0.0
04/12:00pm 28.4 27.6 17.9 53 6.7 S 19 28 10 15 - - 0.0
04/11:30am 28.2 27.3 17.7 53 6.7 S 19 28 10 15 - - 0.0
04/11:00am 27.6 26.2 18.0 55 6.1 S 22 37 12 20 - - 0.0
04/10:30am 26.3 24.8 16.8 56 5.9 S 20 32 11 17 - - 0.0
04/10:00am 26.0 26.1 18.4 63 4.9 SSW 15 28 8 15 - - 0.0
04/09:30am 25.6 26.4 19.0 67 4.3 SSW 13 19 7 10 - - 0.0
04/09:00am 25.1 24.7 18.1 65 4.5 S 17 24 9 13 - - 57.4
04/08:30am 25.0 26.3 19.4 71 3.6 S 11 17 6 9 - - 57.4
04/08:00am 24.0 25.8 19.5 76 2.9 SSW 9 15 5 8 - - 57.4
04/07:30am 23.7 23.8 19.2 76 2.9 SSW 17 24 9 13 - - 57.4
04/07:00am 23.5 23.2 19.2 77 2.8 SSW 19 32 10 17 - - 57.4
04/06:30am 23.3 23.0 19.2 78 2.6 SSW 19 26 10 14 - - 57.4
04/06:00am 23.3 23.3 19.7 80 2.3 SSW 19 28 10 15 - - 57.4
04/05:30am 23.4 24.4 20.2 82 2.1 SSW 15 26 8 14 - - 57.4
04/05:00am 23.4 24.4 20.2 82 2.1 SSW 15 20 8 11 - - 57.4
04/04:30am 23.4 24.9 20.5 84 1.9 S 13 20 7 11 - - 57.4
04/04:00am 23.3 25.0 21.0 87 1.5 S 13 22 7 12 - - 57.4
04/03:30am 23.1 24.6 21.2 89 1.3 S 15 26 8 14 - - 57.4
04/03:00am 23.1 24.3 21.4 90 1.1 S 17 28 9 15 - - 57.4
04/02:30am 23.3 24.5 21.4 89 1.3 S 17 24 9 13 - - 57.4
04/02:00am 23.3 24.6 21.6 90 1.1 S 17 26 9 14 - - 57.4
04/01:30am 24.1 26.9 21.6 86 1.7 S 9 17 5 9 - - 56.8
04/01:00am 24.1 26.4 21.4 85 1.8 S 11 24 6 13 - - 56.8
04/12:30am 24.0 25.6 21.5 86 1.7 SSW 15 24 8 13 - - 56.8
04/12:00am 24.1 26.0 21.4 85 1.8 S 13 20 7 11 - - 56.8
 
Date/Time
EST
Temp
°C
App
Temp
°C
Dew
Point
Rel
Hum
%
Delta-T
°C
Wind Press
QNH
hPa
Press
MSL
hPa
Rain
since 9 am
mm
Dir
 
Spd
km/h
Gust
km/h
Spd
kts
Gust
kts
03/11:30pm 24.0 25.7 21.7 87 1.5 S 15 22 8 12 - - 56.8
03/11:00pm 24.0 24.3 21.5 86 1.7 S 22 35 12 19 - - 56.8
03/10:30pm 23.9 24.9 21.8 88 1.4 S 19 26 10 14 - - 56.8
03/10:00pm 23.9 25.3 21.8 88 1.4 S 17 26 9 14 - - 56.8

Other Formats:

Comma delimited format used in spreadsheet applications
http://www.bom.gov.au/fwo/IDQ60801/IDQ60801.94348.axf

JavaScript Object Notation format (JSON) in row-major order
http://www.bom.gov.au/fwo/IDQ60801/IDQ60801.94348.json